sensor_id;sensor_type;location;lat;lon;timestamp;P1;durP1;ratioP1;P2;durP2;ratioP2
44165;SDS011;30476;53.468;9.826;2023-04-01T00:00:56;5.77;;;2.87;;
44165;SDS011;30476;53.468;9.826;2023-04-01T00:03:22;6.20;;;3.17;;
44165;SDS011;30476;53.468;9.826;2023-04-01T00:05:49;3.10;;;2.83;;
44165;SDS011;30476;53.468;9.826;2023-04-01T00:08:15;4.70;;;3.27;;
44165;SDS011;30476;53.468;9.826;2023-04-01T00:10:41;6.57;;;3.73;;
44165;SDS011;30476;53.468;9.826;2023-04-01T00:13:07;4.90;;;3.67;;
44165;SDS011;30476;53.468;9.826;2023-04-01T00:15:33;3.03;;;2.50;;
44165;SDS011;30476;53.468;9.826;2023-04-01T00:17:59;3.73;;;3.23;;
44165;SDS011;30476;53.468;9.826;2023-04-01T00:20:26;5.40;;;3.80;;
44165;SDS011;30476;53.468;9.826;2023-04-01T00:22:52;7.23;;;3.97;;
44165;SDS011;30476;53.468;9.826;2023-04-01T00:25:18;5.87;;;4.77;;
44165;SDS011;30476;53.468;9.826;2023-04-01T00:27:44;8.00;;;4.67;;
44165;SDS011;30476;53.468;9.826;2023-04-01T00:30:10;8.50;;;4.57;;
44165;SDS011;30476;53.468;9.826;2023-04-01T00:32:36;5.03;;;4.10;;
44165;SDS011;30476;53.468;9.826;2023-04-01T00:35:02;6.47;;;4.50;;
44165;SDS011;30476;53.468;9.826;2023-04-01T00:37:29;4.37;;;3.63;;
44165;SDS011;30476;53.468;9.826;2023-04-01T00:39:55;3.20;;;2.83;;
44165;SDS011;30476;53.468;9.826;2023-04-01T00:42:22;3.97;;;3.20;;
44165;SDS011;30476;53.468;9.826;2023-04-01T00:44:50;4.20;;;2.80;;
44165;SDS011;30476;53.468;9.826;2023-04-01T00:47:17;6.67;;;4.53;;
44165;SDS011;30476;53.468;9.826;2023-04-01T00:49:44;5.70;;;3.73;;
44165;SDS011;30476;53.468;9.826;2023-04-01T00:52:14;5.23;;;3.63;;
44165;SDS011;30476;53.468;9.826;2023-04-01T00:54:44;4.07;;;2.80;;
44165;SDS011;30476;53.468;9.826;2023-04-01T00:57:27;2.73;;;2.53;;
44165;SDS011;30476;53.468;9.826;2023-04-01T00:59:56;4.13;;;2.83;;
44165;SDS011;30476;53.468;9.826;2023-04-01T01:02:22;3.07;;;2.80;;
44165;SDS011;30476;53.468;9.826;2023-04-01T01:04:48;4.07;;;2.93;;
44165;SDS011;30476;53.468;9.826;2023-04-01T01:12:35;3.00;;;2.80;;
44165;SDS011;30476;53.468;9.826;2023-04-01T01:17:54;2.70;;;2.50;;
44165;SDS011;30476;53.468;9.826;2023-04-01T01:23:40;2.97;;;2.37;;
44165;SDS011;30476;53.468;9.826;2023-04-01T01:26:36;3.60;;;2.97;;
44165;SDS011;30476;53.468;9.826;2023-04-01T01:34:51;2.90;;;2.70;;
44165;SDS011;30476;53.468;9.826;2023-04-01T01:37:28;3.43;;;3.13;;
44165;SDS011;30476;53.468;9.826;2023-04-01T01:39:57;3.73;;;2.57;;
44165;SDS011;30476;53.468;9.826;2023-04-01T01:42:26;4.30;;;2.73;;
44165;SDS011;30476;53.468;9.826;2023-04-01T01:44:56;3.13;;;2.93;;
44165;SDS011;30476;53.468;9.826;2023-04-01T01:47:24;3.10;;;2.30;;
44165;SDS011;30476;53.468;9.826;2023-04-01T01:49:51;3.80;;;3.10;;
44165;SDS011;30476;53.468;9.826;2023-04-01T01:52:20;3.67;;;3.10;;
44165;SDS011;30476;53.468;9.826;2023-04-01T01:54:51;3.77;;;2.90;;
44165;SDS011;30476;53.468;9.826;2023-04-01T01:57:21;4.63;;;3.70;;
44165;SDS011;30476;53.468;9.826;2023-04-01T01:59:51;5.37;;;3.67;;
44165;SDS011;30476;53.468;9.826;2023-04-01T02:02:21;5.00;;;3.53;;
44165;SDS011;30476;53.468;9.826;2023-04-01T02:04:49;3.30;;;3.00;;
44165;SDS011;30476;53.468;9.826;2023-04-01T02:07:21;4.30;;;2.63;;
44165;SDS011;30476;53.468;9.826;2023-04-01T02:09:50;4.03;;;3.63;;
44165;SDS011;30476;53.468;9.826;2023-04-01T02:12:17;4.37;;;3.17;;
44165;SDS011;30476;53.468;9.826;2023-04-01T02:14:53;3.43;;;3.03;;
44165;SDS011;30476;53.468;9.826;2023-04-01T02:17:25;3.80;;;3.50;;
44165;SDS011;30476;53.468;9.826;2023-04-01T02:19:58;4.27;;;3.57;;
44165;SDS011;30476;53.468;9.826;2023-04-01T02:22:31;4.10;;;3.80;;
44165;SDS011;30476;53.468;9.826;2023-04-01T02:25:07;3.90;;;3.60;;
44165;SDS011;30476;53.468;9.826;2023-04-01T02:27:35;4.63;;;3.70;;
44165;SDS011;30476;53.468;9.826;2023-04-01T02:30:01;7.47;;;3.60;;
44165;SDS011;30476;53.468;9.826;2023-04-01T02:32:28;5.37;;;3.90;;
44165;SDS011;30476;53.468;9.826;2023-04-01T02:34:56;4.97;;;3.83;;
44165;SDS011;30476;53.468;9.826;2023-04-01T02:37:22;4.97;;;4.43;;
44165;SDS011;30476;53.468;9.826;2023-04-01T02:39:48;4.30;;;4.00;;
44165;SDS011;30476;53.468;9.826;2023-04-01T02:42:14;4.93;;;4.47;;
44165;SDS011;30476;53.468;9.826;2023-04-01T02:44:40;5.77;;;5.23;;
44165;SDS011;30476;53.468;9.826;2023-04-01T02:47:06;4.00;;;3.60;;
44165;SDS011;30476;53.468;9.826;2023-04-01T02:49:31;5.53;;;4.90;;
44165;SDS011;30476;53.468;9.826;2023-04-01T02:51:57;5.40;;;3.90;;
44165;SDS011;30476;53.468;9.826;2023-04-01T02:54:23;3.47;;;3.10;;
44165;SDS011;30476;53.468;9.826;2023-04-01T02:56:49;3.33;;;3.03;;
44165;SDS011;30476;53.468;9.826;2023-04-01T02:59:14;3.53;;;3.23;;
44165;SDS011;30476;53.468;9.826;2023-04-01T03:01:40;4.03;;;3.73;;
44165;SDS011;30476;53.468;9.826;2023-04-01T03:04:07;3.33;;;3.03;;
44165;SDS011;30476;53.468;9.826;2023-04-01T03:06:33;6.17;;;3.90;;
44165;SDS011;30476;53.468;9.826;2023-04-01T03:08:59;4.10;;;3.70;;
44165;SDS011;30476;53.468;9.826;2023-04-01T03:11:24;4.20;;;3.90;;
44165;SDS011;30476;53.468;9.826;2023-04-01T03:13:51;8.40;;;3.97;;
44165;SDS011;30476;53.468;9.826;2023-04-01T03:16:17;5.20;;;3.47;;
44165;SDS011;30476;53.468;9.826;2023-04-01T03:18:42;4.83;;;3.87;;
44165;SDS011;30476;53.468;9.826;2023-04-01T03:21:19;4.47;;;4.13;;
44165;SDS011;30476;53.468;9.826;2023-04-01T03:23:47;5.00;;;3.90;;
44165;SDS011;30476;53.468;9.826;2023-04-01T03:26:13;5.27;;;4.77;;
44165;SDS011;30476;53.468;9.826;2023-04-01T03:28:39;7.43;;;5.53;;
44165;SDS011;30476;53.468;9.826;2023-04-01T03:31:05;7.93;;;5.30;;
44165;SDS011;30476;53.468;9.826;2023-04-01T03:33:31;6.60;;;4.30;;
44165;SDS011;30476;53.468;9.826;2023-04-01T03:35:57;5.73;;;5.13;;
44165;SDS011;30476;53.468;9.826;2023-04-01T03:38:23;5.13;;;4.73;;
44165;SDS011;30476;53.468;9.826;2023-04-01T03:40:49;7.10;;;5.00;;
44165;SDS011;30476;53.468;9.826;2023-04-01T03:43:15;6.70;;;5.10;;
44165;SDS011;30476;53.468;9.826;2023-04-01T03:45:45;7.50;;;4.60;;
44165;SDS011;30476;53.468;9.826;2023-04-01T03:48:12;6.30;;;5.20;;
44165;SDS011;30476;53.468;9.826;2023-04-01T03:50:39;5.40;;;4.80;;
44165;SDS011;30476;53.468;9.826;2023-04-01T03:53:05;5.23;;;4.73;;
44165;SDS011;30476;53.468;9.826;2023-04-01T03:55:31;6.00;;;4.33;;
44165;SDS011;30476;53.468;9.826;2023-04-01T03:57:57;4.90;;;4.40;;
44165;SDS011;30476;53.468;9.826;2023-04-01T04:00:22;5.27;;;4.73;;
44165;SDS011;30476;53.468;9.826;2023-04-01T04:02:48;7.00;;;4.30;;
44165;SDS011;30476;53.468;9.826;2023-04-01T04:05:14;5.10;;;4.60;;
44165;SDS011;30476;53.468;9.826;2023-04-01T04:07:40;7.17;;;4.70;;
44165;SDS011;30476;53.468;9.826;2023-04-01T04:10:06;6.20;;;4.90;;
44165;SDS011;30476;53.468;9.826;2023-04-01T04:12:32;5.57;;;5.00;;
44165;SDS011;30476;53.468;9.826;2023-04-01T04:14:58;5.70;;;4.73;;
44165;SDS011;30476;53.468;9.826;2023-04-01T04:17:24;8.13;;;4.70;;
44165;SDS011;30476;53.468;9.826;2023-04-01T04:19:50;5.73;;;5.30;;
44165;SDS011;30476;53.468;9.826;2023-04-01T04:22:15;6.70;;;4.30;;
44165;SDS011;30476;53.468;9.826;2023-04-01T04:24:41;5.47;;;4.97;;
44165;SDS011;30476;53.468;9.826;2023-04-01T04:27:07;5.20;;;4.70;;
44165;SDS011;30476;53.468;9.826;2023-04-01T04:29:33;7.93;;;4.90;;
44165;SDS011;30476;53.468;9.826;2023-04-01T04:31:58;7.47;;;5.40;;
44165;SDS011;30476;53.468;9.826;2023-04-01T04:34:24;6.87;;;5.07;;
44165;SDS011;30476;53.468;9.826;2023-04-01T04:36:50;8.20;;;7.50;;
44165;SDS011;30476;53.468;9.826;2023-04-01T04:39:16;8.30;;;7.00;;
44165;SDS011;30476;53.468;9.826;2023-04-01T04:41:41;7.10;;;5.67;;
44165;SDS011;30476;53.468;9.826;2023-04-01T04:44:07;6.37;;;5.77;;
44165;SDS011;30476;53.468;9.826;2023-04-01T04:46:33;5.70;;;5.20;;
44165;SDS011;30476;53.468;9.826;2023-04-01T04:48:59;6.37;;;5.80;;
44165;SDS011;30476;53.468;9.826;2023-04-01T04:51:25;7.30;;;6.27;;
44165;SDS011;30476;53.468;9.826;2023-04-01T04:53:51;9.97;;;5.13;;
44165;SDS011;30476;53.468;9.826;2023-04-01T04:56:20;9.77;;;5.77;;
44165;SDS011;30476;53.468;9.826;2023-04-01T04:58:47;7.60;;;5.87;;
44165;SDS011;30476;53.468;9.826;2023-04-01T05:01:14;6.53;;;5.90;;
44165;SDS011;30476;53.468;9.826;2023-04-01T05:03:41;7.40;;;5.80;;
44165;SDS011;30476;53.468;9.826;2023-04-01T05:06:07;12.70;;;7.03;;
44165;SDS011;30476;53.468;9.826;2023-04-01T05:08:34;8.33;;;5.87;;
44165;SDS011;30476;53.468;9.826;2023-04-01T05:11:00;8.53;;;7.00;;
44165;SDS011;30476;53.468;9.826;2023-04-01T05:13:27;8.23;;;5.97;;
44165;SDS011;30476;53.468;9.826;2023-04-01T05:15:54;9.97;;;5.87;;
44165;SDS011;30476;53.468;9.826;2023-04-01T05:18:20;8.50;;;6.10;;
44165;SDS011;30476;53.468;9.826;2023-04-01T05:20:50;5.90;;;5.30;;
44165;SDS011;30476;53.468;9.826;2023-04-01T05:23:18;7.00;;;5.60;;
44165;SDS011;30476;53.468;9.826;2023-04-01T05:25:46;6.10;;;5.57;;
44165;SDS011;30476;53.468;9.826;2023-04-01T05:28:18;6.17;;;5.23;;
44165;SDS011;30476;53.468;9.826;2023-04-01T05:30:45;7.80;;;5.17;;
44165;SDS011;30476;53.468;9.826;2023-04-01T05:33:11;8.47;;;6.40;;
44165;SDS011;30476;53.468;9.826;2023-04-01T05:35:38;6.70;;;5.50;;
44165;SDS011;30476;53.468;9.826;2023-04-01T05:38:04;6.40;;;5.80;;
44165;SDS011;30476;53.468;9.826;2023-04-01T05:40:31;7.80;;;6.03;;
44165;SDS011;30476;53.468;9.826;2023-04-01T05:42:57;9.50;;;6.40;;
44165;SDS011;30476;53.468;9.826;2023-04-01T05:45:24;6.87;;;5.90;;
44165;SDS011;30476;53.468;9.826;2023-04-01T05:47:50;10.00;;;6.47;;
44165;SDS011;30476;53.468;9.826;2023-04-01T05:50:16;9.33;;;6.13;;
44165;SDS011;30476;53.468;9.826;2023-04-01T05:52:41;6.23;;;5.60;;
44165;SDS011;30476;53.468;9.826;2023-04-01T05:55:08;8.90;;;6.07;;
44165;SDS011;30476;53.468;9.826;2023-04-01T05:57:33;7.67;;;5.70;;
44165;SDS011;30476;53.468;9.826;2023-04-01T05:59:59;6.80;;;5.37;;
44165;SDS011;30476;53.468;9.826;2023-04-01T06:02:25;6.50;;;5.53;;
44165;SDS011;30476;53.468;9.826;2023-04-01T06:04:53;5.00;;;4.00;;
44165;SDS011;30476;53.468;9.826;2023-04-01T06:07:43;7.07;;;4.77;;
44165;SDS011;30476;53.468;9.826;2023-04-01T06:10:11;4.40;;;4.00;;
44165;SDS011;30476;53.468;9.826;2023-04-01T06:23:39;4.27;;;3.87;;
44165;SDS011;30476;53.468;9.826;2023-04-01T06:26:34;3.47;;;3.17;;
44165;SDS011;30476;53.468;9.826;2023-04-01T06:35:17;3.43;;;3.13;;
44165;SDS011;30476;53.468;9.826;2023-04-01T06:37:58;1.60;;;1.50;;
44165;SDS011;30476;53.468;9.826;2023-04-01T06:46:09;0.90;;;0.90;;
44165;SDS011;30476;53.468;9.826;2023-04-01T06:49:02;1.00;;;0.90;;
44165;SDS011;30476;53.468;9.826;2023-04-01T06:51:46;0.70;;;0.60;;
44165;SDS011;30476;53.468;9.826;2023-04-01T06:54:36;4.77;;;0.90;;
44165;SDS011;30476;53.468;9.826;2023-04-01T07:00:19;1.67;;;0.83;;
44165;SDS011;30476;53.468;9.826;2023-04-01T07:03:20;0.77;;;0.77;;
44165;SDS011;30476;53.468;9.826;2023-04-01T07:06:00;0.90;;;0.90;;
44165;SDS011;30476;53.468;9.826;2023-04-01T07:08:35;0.77;;;0.77;;
44165;SDS011;30476;53.468;9.826;2023-04-01T07:11:05;0.70;;;0.70;;
44165;SDS011;30476;53.468;9.826;2023-04-01T07:16:39;0.70;;;0.70;;
44165;SDS011;30476;53.468;9.826;2023-04-01T07:21:53;0.80;;;0.80;;
44165;SDS011;30476;53.468;9.826;2023-04-01T07:24:24;0.90;;;0.90;;
44165;SDS011;30476;53.468;9.826;2023-04-01T07:26:53;0.70;;;0.70;;
44165;SDS011;30476;53.468;9.826;2023-04-01T07:29:21;0.90;;;0.90;;
44165;SDS011;30476;53.468;9.826;2023-04-01T07:34:29;1.00;;;1.00;;
44165;SDS011;30476;53.468;9.826;2023-04-01T07:37:10;1.57;;;1.47;;
44165;SDS011;30476;53.468;9.826;2023-04-01T07:39:57;1.30;;;1.20;;
44165;SDS011;30476;53.468;9.826;2023-04-01T07:45:09;1.00;;;1.00;;
44165;SDS011;30476;53.468;9.826;2023-04-01T07:47:52;0.90;;;0.90;;
44165;SDS011;30476;53.468;9.826;2023-04-01T07:50:27;1.00;;;0.90;;
44165;SDS011;30476;53.468;9.826;2023-04-01T07:53:00;0.70;;;0.70;;
44165;SDS011;30476;53.468;9.826;2023-04-01T07:58:23;0.73;;;0.73;;
44165;SDS011;30476;53.468;9.826;2023-04-01T08:01:08;0.93;;;0.70;;
44165;SDS011;30476;53.468;9.826;2023-04-01T08:06:56;0.97;;;0.87;;
44165;SDS011;30476;53.468;9.826;2023-04-01T08:12:08;0.83;;;0.80;;
44165;SDS011;30476;53.468;9.826;2023-04-01T08:25:39;0.80;;;0.80;;
44165;SDS011;30476;53.468;9.826;2023-04-01T08:28:10;0.73;;;0.73;;
44165;SDS011;30476;53.468;9.826;2023-04-01T08:30:47;1.13;;;1.03;;
44165;SDS011;30476;53.468;9.826;2023-04-01T08:33:24;0.90;;;0.90;;
44165;SDS011;30476;53.468;9.826;2023-04-01T08:36:08;0.70;;;0.70;;
44165;SDS011;30476;53.468;9.826;2023-04-01T08:39:04;0.80;;;0.80;;
44165;SDS011;30476;53.468;9.826;2023-04-01T08:50:01;0.87;;;0.87;;
44165;SDS011;30476;53.468;9.826;2023-04-01T08:55:38;0.60;;;0.60;;
44165;SDS011;30476;53.468;9.826;2023-04-01T08:58:33;0.60;;;0.60;;
44165;SDS011;30476;53.468;9.826;2023-04-01T09:06:52;0.70;;;0.70;;
44165;SDS011;30476;53.468;9.826;2023-04-01T09:14:59;0.80;;;0.80;;
44165;SDS011;30476;53.468;9.826;2023-04-01T09:17:43;0.90;;;0.90;;
44165;SDS011;30476;53.468;9.826;2023-04-01T09:20:39;0.90;;;0.90;;
44165;SDS011;30476;53.468;9.826;2023-04-01T09:23:27;0.83;;;0.80;;
44165;SDS011;30476;53.468;9.826;2023-04-01T09:26:14;0.90;;;0.90;;
44165;SDS011;30476;53.468;9.826;2023-04-01T09:36:45;0.80;;;0.80;;
44165;SDS011;30476;53.468;9.826;2023-04-01T09:42:31;0.63;;;0.63;;
44165;SDS011;30476;53.468;9.826;2023-04-01T09:45:09;0.80;;;0.77;;
44165;SDS011;30476;53.468;9.826;2023-04-01T09:47:51;0.80;;;0.80;;
44165;SDS011;30476;53.468;9.826;2023-04-01T09:53:11;0.90;;;0.90;;
44165;SDS011;30476;53.468;9.826;2023-04-01T09:58:42;1.00;;;0.90;;
44165;SDS011;30476;53.468;9.826;2023-04-01T10:06:27;0.80;;;0.80;;
44165;SDS011;30476;53.468;9.826;2023-04-01T10:12:08;0.80;;;0.80;;
44165;SDS011;30476;53.468;9.826;2023-04-01T10:14:59;0.80;;;0.80;;
44165;SDS011;30476;53.468;9.826;2023-04-01T10:20:46;0.80;;;0.80;;
44165;SDS011;30476;53.468;9.826;2023-04-01T10:23:41;1.03;;;0.93;;
44165;SDS011;30476;53.468;9.826;2023-04-01T10:26:27;0.80;;;0.70;;
44165;SDS011;30476;53.468;9.826;2023-04-01T10:29:37;0.77;;;0.77;;
44165;SDS011;30476;53.468;9.826;2023-04-01T10:34:54;2.33;;;0.90;;
44165;SDS011;30476;53.468;9.826;2023-04-01T10:43:04;1.83;;;1.50;;
44165;SDS011;30476;53.468;9.826;2023-04-01T10:48:36;2.10;;;2.00;;
44165;SDS011;30476;53.468;9.826;2023-04-01T10:51:34;1.53;;;1.33;;
44165;SDS011;30476;53.468;9.826;2023-04-01T10:54:34;2.97;;;2.77;;
44165;SDS011;30476;53.468;9.826;2023-04-01T11:03:10;1.93;;;1.80;;
44165;SDS011;30476;53.468;9.826;2023-04-01T11:14:15;1.80;;;1.70;;
44165;SDS011;30476;53.468;9.826;2023-04-01T11:31:23;1.50;;;1.40;;
44165;SDS011;30476;53.468;9.826;2023-04-01T11:37:18;1.30;;;1.20;;
44165;SDS011;30476;53.468;9.826;2023-04-01T11:43:07;1.57;;;1.40;;
44165;SDS011;30476;53.468;9.826;2023-04-01T11:45:46;1.40;;;1.30;;
44165;SDS011;30476;53.468;9.826;2023-04-01T11:48:48;1.30;;;1.20;;
44165;SDS011;30476;53.468;9.826;2023-04-01T11:54:14;1.20;;;1.10;;
44165;SDS011;30476;53.468;9.826;2023-04-01T12:05:38;1.50;;;1.40;;
44165;SDS011;30476;53.468;9.826;2023-04-01T12:10:57;1.27;;;1.20;;
44165;SDS011;30476;53.468;9.826;2023-04-01T12:13:36;1.20;;;1.10;;
44165;SDS011;30476;53.468;9.826;2023-04-01T12:21:52;2.17;;;1.30;;
44165;SDS011;30476;53.468;9.826;2023-04-01T12:24:46;1.30;;;1.20;;
44165;SDS011;30476;53.468;9.826;2023-04-01T12:27:27;1.33;;;1.23;;
44165;SDS011;30476;53.468;9.826;2023-04-01T12:30:15;2.27;;;1.90;;
44165;SDS011;30476;53.468;9.826;2023-04-01T12:33:36;1.93;;;1.70;;
44165;SDS011;30476;53.468;9.826;2023-04-01T12:39:03;2.47;;;2.27;;
44165;SDS011;30476;53.468;9.826;2023-04-01T12:44:41;2.50;;;2.30;;
44165;SDS011;30476;53.468;9.826;2023-04-01T12:50:05;3.30;;;1.97;;
44165;SDS011;30476;53.468;9.826;2023-04-01T12:53:02;1.83;;;1.70;;
44165;SDS011;30476;53.468;9.826;2023-04-01T12:55:48;2.33;;;2.13;;
44165;SDS011;30476;53.468;9.826;2023-04-01T12:58:35;2.00;;;1.83;;
44165;SDS011;30476;53.468;9.826;2023-04-01T13:01:23;1.80;;;1.70;;
44165;SDS011;30476;53.468;9.826;2023-04-01T13:10:07;3.23;;;3.03;;
44165;SDS011;30476;53.468;9.826;2023-04-01T13:12:58;2.70;;;2.50;;
44165;SDS011;30476;53.468;9.826;2023-04-01T13:15:41;3.50;;;2.43;;
44165;SDS011;30476;53.468;9.826;2023-04-01T13:18:48;2.40;;;2.20;;
44165;SDS011;30476;53.468;9.826;2023-04-01T13:32:45;2.23;;;2.00;;
44165;SDS011;30476;53.468;9.826;2023-04-01T13:35:22;2.83;;;2.10;;
44165;SDS011;30476;53.468;9.826;2023-04-01T13:38:04;6.07;;;3.10;;
44165;SDS011;30476;53.468;9.826;2023-04-01T13:40:49;3.47;;;3.17;;
44165;SDS011;30476;53.468;9.826;2023-04-01T13:43:28;3.30;;;3.00;;
44165;SDS011;30476;53.468;9.826;2023-04-01T13:46:27;3.83;;;3.43;;
44165;SDS011;30476;53.468;9.826;2023-04-01T13:55:17;2.87;;;2.67;;
44165;SDS011;30476;53.468;9.826;2023-04-01T14:01:09;3.43;;;2.37;;
44165;SDS011;30476;53.468;9.826;2023-04-01T14:04:03;2.10;;;1.93;;
44165;SDS011;30476;53.468;9.826;2023-04-01T14:07:00;3.57;;;3.37;;
44165;SDS011;30476;53.468;9.826;2023-04-01T14:09:54;4.50;;;2.33;;
44165;SDS011;30476;53.468;9.826;2023-04-01T14:20:49;3.10;;;2.00;;
44165;SDS011;30476;53.468;9.826;2023-04-01T14:23:24;3.43;;;3.23;;
44165;SDS011;30476;53.468;9.826;2023-04-01T14:29:29;5.03;;;3.13;;
44165;SDS011;30476;53.468;9.826;2023-04-01T14:32:20;4.50;;;2.90;;
44165;SDS011;30476;53.468;9.826;2023-04-01T14:41:06;3.40;;;2.60;;
44165;SDS011;30476;53.468;9.826;2023-04-01T14:46:30;3.70;;;3.33;;
44165;SDS011;30476;53.468;9.826;2023-04-01T14:49:32;2.80;;;2.60;;
44165;SDS011;30476;53.468;9.826;2023-04-01T14:52:14;2.37;;;2.27;;
44165;SDS011;30476;53.468;9.826;2023-04-01T14:54:59;4.33;;;3.40;;
44165;SDS011;30476;53.468;9.826;2023-04-01T14:57:30;4.00;;;3.60;;
44165;SDS011;30476;53.468;9.826;2023-04-01T15:00:01;3.60;;;3.30;;
44165;SDS011;30476;53.468;9.826;2023-04-01T15:05:10;3.67;;;3.23;;
44165;SDS011;30476;53.468;9.826;2023-04-01T15:08:20;5.43;;;4.83;;
44165;SDS011;30476;53.468;9.826;2023-04-01T15:14:13;4.30;;;3.73;;
44165;SDS011;30476;53.468;9.826;2023-04-01T15:16:55;4.90;;;4.40;;
44165;SDS011;30476;53.468;9.826;2023-04-01T15:19:40;5.20;;;4.80;;
44165;SDS011;30476;53.468;9.826;2023-04-01T15:23:08;5.80;;;3.53;;
44165;SDS011;30476;53.468;9.826;2023-04-01T15:25:29;4.13;;;3.57;;
44165;SDS011;30476;53.468;9.826;2023-04-01T15:28:02;6.40;;;3.30;;
44165;SDS011;30476;53.468;9.826;2023-04-01T15:30:57;4.23;;;3.80;;
44165;SDS011;30476;53.468;9.826;2023-04-01T15:38:54;6.83;;;5.30;;
44165;SDS011;30476;53.468;9.826;2023-04-01T15:41:24;5.33;;;4.87;;
44165;SDS011;30476;53.468;9.826;2023-04-01T15:44:02;5.37;;;4.33;;
44165;SDS011;30476;53.468;9.826;2023-04-01T15:46:41;5.27;;;4.50;;
44165;SDS011;30476;53.468;9.826;2023-04-01T15:49:27;4.37;;;3.80;;
44165;SDS011;30476;53.468;9.826;2023-04-01T15:55:10;6.30;;;4.90;;
44165;SDS011;30476;53.468;9.826;2023-04-01T16:02:54;7.77;;;3.40;;
44165;SDS011;30476;53.468;9.826;2023-04-01T16:05:42;3.97;;;3.47;;
44165;SDS011;30476;53.468;9.826;2023-04-01T16:14:33;6.40;;;4.30;;
44165;SDS011;30476;53.468;9.826;2023-04-01T16:20:19;5.30;;;4.90;;
44165;SDS011;30476;53.468;9.826;2023-04-01T16:23:03;5.40;;;4.90;;
44165;SDS011;30476;53.468;9.826;2023-04-01T16:25:39;10.60;;;4.60;;
44165;SDS011;30476;53.468;9.826;2023-04-01T16:28:32;6.50;;;4.13;;
44165;SDS011;30476;53.468;9.826;2023-04-01T16:31:09;7.63;;;4.13;;
44165;SDS011;30476;53.468;9.826;2023-04-01T16:33:45;8.00;;;5.43;;
44165;SDS011;30476;53.468;9.826;2023-04-01T16:42:06;5.27;;;4.77;;
44165;SDS011;30476;53.468;9.826;2023-04-01T16:44:44;5.57;;;5.07;;
44165;SDS011;30476;53.468;9.826;2023-04-01T16:47:30;8.67;;;6.93;;
44165;SDS011;30476;53.468;9.826;2023-04-01T16:50:06;5.23;;;4.83;;
44165;SDS011;30476;53.468;9.826;2023-04-01T16:52:42;7.90;;;5.60;;
44165;SDS011;30476;53.468;9.826;2023-04-01T16:58:20;4.90;;;4.50;;
44165;SDS011;30476;53.468;9.826;2023-04-01T17:00:55;17.97;;;9.50;;
44165;SDS011;30476;53.468;9.826;2023-04-01T17:03:33;9.33;;;6.43;;
44165;SDS011;30476;53.468;9.826;2023-04-01T17:08:51;5.63;;;4.10;;
44165;SDS011;30476;53.468;9.826;2023-04-01T17:11:54;7.00;;;5.50;;
44165;SDS011;30476;53.468;9.826;2023-04-01T17:14:28;4.77;;;4.27;;
44165;SDS011;30476;53.468;9.826;2023-04-01T17:17:10;7.20;;;5.80;;
44165;SDS011;30476;53.468;9.826;2023-04-01T17:19:48;8.37;;;5.23;;
44165;SDS011;30476;53.468;9.826;2023-04-01T17:22:31;7.70;;;5.00;;
44165;SDS011;30476;53.468;9.826;2023-04-01T17:25:10;5.40;;;4.80;;
44165;SDS011;30476;53.468;9.826;2023-04-01T17:28:09;6.27;;;4.47;;
44165;SDS011;30476;53.468;9.826;2023-04-01T17:31:05;4.97;;;4.50;;
44165;SDS011;30476;53.468;9.826;2023-04-01T17:36:55;4.70;;;4.13;;
44165;SDS011;30476;53.468;9.826;2023-04-01T17:39:39;4.20;;;3.83;;
44165;SDS011;30476;53.468;9.826;2023-04-01T17:42:31;6.57;;;4.30;;
44165;SDS011;30476;53.468;9.826;2023-04-01T17:50:33;5.70;;;4.33;;
44165;SDS011;30476;53.468;9.826;2023-04-01T17:53:13;4.70;;;4.30;;
44165;SDS011;30476;53.468;9.826;2023-04-01T17:56:06;6.43;;;4.70;;
44165;SDS011;30476;53.468;9.826;2023-04-01T18:02:03;4.30;;;3.70;;
44165;SDS011;30476;53.468;9.826;2023-04-01T18:07:46;3.33;;;3.10;;
44165;SDS011;30476;53.468;9.826;2023-04-01T18:19:18;4.10;;;3.50;;
44165;SDS011;30476;53.468;9.826;2023-04-01T18:24:49;4.67;;;3.23;;
44165;SDS011;30476;53.468;9.826;2023-04-01T18:27:32;5.50;;;5.00;;
44165;SDS011;30476;53.468;9.826;2023-04-01T18:32:43;4.67;;;3.80;;
44165;SDS011;30476;53.468;9.826;2023-04-01T18:35:41;4.17;;;3.30;;
44165;SDS011;30476;53.468;9.826;2023-04-01T18:38:16;3.90;;;3.50;;
44165;SDS011;30476;53.468;9.826;2023-04-01T18:43:42;5.47;;;3.60;;
44165;SDS011;30476;53.468;9.826;2023-04-01T18:46:44;3.20;;;2.90;;
44165;SDS011;30476;53.468;9.826;2023-04-01T18:52:09;6.03;;;4.53;;
44165;SDS011;30476;53.468;9.826;2023-04-01T18:54:44;3.97;;;3.60;;
44165;SDS011;30476;53.468;9.826;2023-04-01T18:57:18;10.53;;;4.00;;
44165;SDS011;30476;53.468;9.826;2023-04-01T18:59:46;3.77;;;3.40;;
44165;SDS011;30476;53.468;9.826;2023-04-01T19:02:19;6.00;;;3.63;;
44165;SDS011;30476;53.468;9.826;2023-04-01T19:05:00;4.23;;;3.67;;
44165;SDS011;30476;53.468;9.826;2023-04-01T19:13:40;5.87;;;3.43;;
44165;SDS011;30476;53.468;9.826;2023-04-01T19:22:22;5.20;;;3.37;;
44165;SDS011;30476;53.468;9.826;2023-04-01T19:27:50;5.53;;;4.17;;
44165;SDS011;30476;53.468;9.826;2023-04-01T19:30:39;5.70;;;4.00;;
44165;SDS011;30476;53.468;9.826;2023-04-01T19:41:55;4.40;;;3.60;;
44165;SDS011;30476;53.468;9.826;2023-04-01T19:47:50;5.10;;;4.70;;
44165;SDS011;30476;53.468;9.826;2023-04-01T19:53:20;4.40;;;3.77;;
44165;SDS011;30476;53.468;9.826;2023-04-01T19:55:55;5.30;;;4.00;;
44165;SDS011;30476;53.468;9.826;2023-04-01T20:00:59;6.13;;;2.60;;
44165;SDS011;30476;53.468;9.826;2023-04-01T20:03:48;4.00;;;2.53;;
44165;SDS011;30476;53.468;9.826;2023-04-01T20:06:22;3.20;;;2.90;;
44165;SDS011;30476;53.468;9.826;2023-04-01T20:12:04;3.30;;;2.77;;
44165;SDS011;30476;53.468;9.826;2023-04-01T20:14:51;3.10;;;2.77;;
44165;SDS011;30476;53.468;9.826;2023-04-01T20:22:37;2.60;;;2.40;;
44165;SDS011;30476;53.468;9.826;2023-04-01T20:25:15;3.00;;;2.60;;
44165;SDS011;30476;53.468;9.826;2023-04-01T20:28:05;3.03;;;2.30;;
44165;SDS011;30476;53.468;9.826;2023-04-01T20:30:49;3.00;;;2.27;;
44165;SDS011;30476;53.468;9.826;2023-04-01T20:39:34;3.33;;;2.70;;
44165;SDS011;30476;53.468;9.826;2023-04-01T20:42:16;6.80;;;2.63;;
44165;SDS011;30476;53.468;9.826;2023-04-01T20:45:04;3.93;;;2.33;;
44165;SDS011;30476;53.468;9.826;2023-04-01T21:04:08;3.40;;;2.73;;
44165;SDS011;30476;53.468;9.826;2023-04-01T21:06:57;3.03;;;2.47;;
44165;SDS011;30476;53.468;9.826;2023-04-01T21:09:34;2.87;;;1.83;;
44165;SDS011;30476;53.468;9.826;2023-04-01T21:12:24;4.33;;;1.93;;
44165;SDS011;30476;53.468;9.826;2023-04-01T21:15:21;4.70;;;2.33;;
44165;SDS011;30476;53.468;9.826;2023-04-01T21:18:24;3.60;;;2.13;;
44165;SDS011;30476;53.468;9.826;2023-04-01T21:20:56;8.97;;;2.63;;
44165;SDS011;30476;53.468;9.826;2023-04-01T21:23:48;3.60;;;2.63;;
44165;SDS011;30476;53.468;9.826;2023-04-01T21:26:23;2.40;;;2.20;;
44165;SDS011;30476;53.468;9.826;2023-04-01T21:29:30;2.30;;;1.97;;
44165;SDS011;30476;53.468;9.826;2023-04-01T21:32:25;3.33;;;1.60;;
44165;SDS011;30476;53.468;9.826;2023-04-01T21:41:08;4.27;;;1.73;;
44165;SDS011;30476;53.468;9.826;2023-04-01T21:43:54;5.10;;;1.70;;
44165;SDS011;30476;53.468;9.826;2023-04-01T21:46:48;2.17;;;1.97;;
44165;SDS011;30476;53.468;9.826;2023-04-01T21:49:49;2.33;;;1.90;;
44165;SDS011;30476;53.468;9.826;2023-04-01T21:55:08;3.40;;;1.40;;
44165;SDS011;30476;53.468;9.826;2023-04-01T21:58:02;2.00;;;1.80;;
44165;SDS011;30476;53.468;9.826;2023-04-01T22:01:07;2.03;;;1.63;;
44165;SDS011;30476;53.468;9.826;2023-04-01T22:04:05;4.97;;;1.57;;
44165;SDS011;30476;53.468;9.826;2023-04-01T22:09:45;2.53;;;1.90;;
44165;SDS011;30476;53.468;9.826;2023-04-01T22:12:27;3.33;;;1.37;;
44165;SDS011;30476;53.468;9.826;2023-04-01T22:18:16;1.70;;;1.60;;
44165;SDS011;30476;53.468;9.826;2023-04-01T22:20:47;2.13;;;1.70;;
44165;SDS011;30476;53.468;9.826;2023-04-01T22:28:37;2.80;;;1.87;;